Time;durP1;ratioP1;P1;durP2;ratioP2;P2;SDS_P1;SDS_P2;PMS_P1;PMS_P2;Temp;Humidity;BMP_temperature;BMP_pressure;BME280_temperature;BME280_humidity;BME280_pressure;Samples;Min_cycle;Max_cycle;Signal;HPM_P1;HPM_P2
2022/08/08 00:01:52;;;;;;;2.23;1.00;;;;;;;;;;5068042;28;20315;-70
2022/08/08 00:04:24;;;;;;;1.00;0.90;;;;;;;;;;5069781;28;20185;-71
2022/08/08 00:07:15;;;;;;;4.10;1.10;;;;;;;;;;5067602;28;20204;-70
2022/08/08 00:09:59;;;;;;;1.30;0.93;;;;;;;;;;5066338;28;20217;-70
2022/08/08 00:12:30;;;;;;;3.60;1.10;;;;;;;;;;5076907;28;20246;-70
2022/08/08 00:15:02;;;;;;;1.10;0.90;;;;;;;;;;5070896;28;20208;-70
2022/08/08 00:17:38;;;;;;;1.50;1.10;;;;;;;;;;5068914;28;20217;-70
2022/08/08 00:20:10;;;;;;;2.13;1.10;;;;;;;;;;5074168;28;20188;-71
2022/08/08 00:22:41;;;;;;;1.87;0.90;;;;;;;;;;5069082;28;20185;-70
2022/08/08 00:25:12;;;;;;;1.37;1.00;;;;;;;;;;5074235;28;20193;-71
2022/08/08 00:27:39;;;;;;;1.40;0.90;;;;;;;;;;5066435;28;20536;-70
2022/08/08 00:30:07;;;;;;;1.67;0.90;;;;;;;;;;5063264;28;20829;-71
2022/08/08 00:32:35;;;;;;;1.03;0.83;;;;;;;;;;5063086;28;20325;-70
2022/08/08 00:35:21;;;;;;;1.10;1.00;;;;;;;;;;5063477;28;20263;-72
2022/08/08 00:38:03;;;;;;;1.63;0.97;;;;;;;;;;5068279;28;20213;-69
2022/08/08 00:40:29;;;;;;;1.40;0.90;;;;;;;;;;5063554;28;20650;-71
2022/08/08 00:43:14;;;;;;;1.80;0.80;;;;;;;;;;5058136;28;20189;-71
2022/08/08 00:45:40;;;;;;;1.20;1.00;;;;;;;;;;5069077;28;20317;-70
2022/08/08 00:48:34;;;;;;;1.53;1.00;;;;;;;;;;5048958;28;20221;-70
2022/08/08 00:51:02;;;;;;;1.30;1.00;;;;;;;;;;5073439;28;20189;-70
2022/08/08 00:53:29;;;;;;;1.90;1.10;;;;;;;;;;5062107;28;20189;-70
2022/08/08 00:56:08;;;;;;;2.23;1.00;;;;;;;;;;5072356;28;20239;-70
2022/08/08 00:58:38;;;;;;;1.23;1.13;;;;;;;;;;5066834;28;20695;-70
2022/08/08 01:01:15;;;;;;;1.03;1.00;;;;;;;;;;5061566;28;20189;-70
2022/08/08 01:04:08;;;;;;;6.10;1.20;;;;;;;;;;5057585;28;20227;-70
2022/08/08 01:06:56;;;;;;;1.00;1.00;;;;;;;;;;5061563;28;20209;-71
2022/08/08 01:09:45;;;;;;;1.13;1.00;;;;;;;;;;5056233;28;20193;-70
2022/08/08 01:12:40;;;;;;;1.33;1.10;;;;;;;;;;5080305;28;20280;-70
2022/08/08 01:15:27;;;;;;;2.97;0.90;;;;;;;;;;5034623;28;20328;-71
2022/08/08 01:18:00;;;;;;;1.57;0.90;;;;;;;;;;5065661;28;20208;-70
2022/08/08 01:20:33;;;;;;;1.10;1.00;;;;;;;;;;5068958;28;20233;-71
2022/08/08 01:23:18;;;;;;;1.97;0.90;;;;;;;;;;5077450;28;20181;-70
2022/08/08 01:26:05;;;;;;;1.90;0.90;;;;;;;;;;5064278;28;20258;-69
2022/08/08 01:28:44;;;;;;;1.57;1.10;;;;;;;;;;5039077;28;20681;-70
2022/08/08 01:31:10;;;;;;;1.27;1.10;;;;;;;;;;5056306;28;20272;-70
2022/08/08 01:33:46;;;;;;;0.90;0.90;;;;;;;;;;5063160;28;20176;-71
2022/08/08 01:36:25;;;;;;;1.20;1.10;;;;;;;;;;5064464;28;20284;-70
2022/08/08 01:38:52;;;;;;;1.00;0.90;;;;;;;;;;5066140;28;20192;-70
2022/08/08 01:41:31;;;;;;;1.03;0.93;;;;;;;;;;5074197;28;20217;-71
2022/08/08 01:44:08;;;;;;;2.07;1.00;;;;;;;;;;5065123;28;20651;-70
2022/08/08 01:46:41;;;;;;;1.90;0.93;;;;;;;;;;5074103;28;20213;-71
2022/08/08 01:49:37;;;;;;;2.60;1.23;;;;;;;;;;5061070;28;20234;-71
2022/08/08 01:52:31;;;;;;;1.77;1.10;;;;;;;;;;5052242;28;20193;-71
2022/08/08 01:55:17;;;;;;;1.00;0.90;;;;;;;;;;5098733;28;20192;-72
2022/08/08 01:57:49;;;;;;;1.50;0.90;;;;;;;;;;5057821;28;20209;-71
2022/08/08 02:00:19;;;;;;;1.30;1.00;;;;;;;;;;5057967;28;20185;-71
2022/08/08 02:03:12;;;;;;;2.13;1.10;;;;;;;;;;5062726;28;20181;-71
2022/08/08 02:05:58;;;;;;;1.20;0.90;;;;;;;;;;5060077;28;20730;-71
2022/08/08 02:08:47;;;;;;;2.20;1.10;;;;;;;;;;5046150;28;20430;-71
2022/08/08 02:11:33;;;;;;;2.10;0.90;;;;;;;;;;5058047;28;20541;-71
2022/08/08 02:14:05;;;;;;;1.33;1.00;;;;;;;;;;5054735;28;20251;-71
2022/08/08 02:17:02;;;;;;;1.10;1.00;;;;;;;;;;5059679;28;20674;-70
2022/08/08 02:19:54;;;;;;;1.10;1.00;;;;;;;;;;5062615;28;20200;-71
2022/08/08 02:22:47;;;;;;;0.80;0.80;;;;;;;;;;5062135;28;20596;-71
2022/08/08 02:25:30;;;;;;;1.17;0.90;;;;;;;;;;5066084;28;20205;-71
2022/08/08 02:27:56;;;;;;;2.30;0.90;;;;;;;;;;5055141;28;20197;-71
2022/08/08 02:30:42;;;;;;;3.33;2.13;;;;;;;;;;5060761;28;20196;-71
2022/08/08 02:33:28;;;;;;;2.00;1.30;;;;;;;;;;5062246;28;20185;-71
2022/08/08 02:36:12;;;;;;;1.60;1.00;;;;;;;;;;5057941;28;20248;-71
2022/08/08 02:38:44;;;;;;;1.67;1.10;;;;;;;;;;5061446;28;20209;-71
2022/08/08 02:41:24;;;;;;;1.17;1.00;;;;;;;;;;5055526;28;20273;-71
2022/08/08 02:44:11;;;;;;;1.73;1.10;;;;;;;;;;5061522;28;20177;-70
2022/08/08 02:46:51;;;;;;;1.13;1.00;;;;;;;;;;5061060;28;20240;-71
2022/08/08 02:49:35;;;;;;;1.60;1.00;;;;;;;;;;5066219;28;20598;-71
2022/08/08 02:52:16;;;;;;;1.67;1.27;;;;;;;;;;5055911;28;20755;-72
2022/08/08 02:55:08;;;;;;;2.83;1.17;;;;;;;;;;5062048;28;20578;-72
2022/08/08 02:57:53;;;;;;;1.53;1.13;;;;;;;;;;5058859;28;20236;-71
2022/08/08 03:00:21;;;;;;;1.40;1.13;;;;;;;;;;5065415;28;20177;-71
2022/08/08 03:03:09;;;;;;;2.00;1.00;;;;;;;;;;5065232;28;20185;-71
2022/08/08 03:05:50;;;;;;;1.30;1.20;;;;;;;;;;5064020;28;20204;-71
2022/08/08 03:08:35;;;;;;;2.47;1.20;;;;;;;;;;5071669;28;20272;-71
2022/08/08 03:11:01;;;;;;;1.03;1.00;;;;;;;;;;5073441;28;20246;-71
2022/08/08 03:13:27;;;;;;;2.20;1.20;;;;;;;;;;5068183;28;20242;-71
2022/08/08 03:15:57;;;;;;;2.97;1.00;;;;;;;;;;5072484;28;20205;-71
2022/08/08 03:18:33;;;;;;;1.10;1.00;;;;;;;;;;5067925;28;20216;-71
2022/08/08 03:21:00;;;;;;;1.20;1.10;;;;;;;;;;5070765;28;20251;-72
2022/08/08 03:23:29;;;;;;;3.80;1.10;;;;;;;;;;5066068;28;20566;-71
2022/08/08 03:25:57;;;;;;;1.40;1.20;;;;;;;;;;5070204;28;20201;-71
2022/08/08 03:28:23;;;;;;;2.93;1.10;;;;;;;;;;5055256;28;20674;-70
2022/08/08 03:30:50;;;;;;;1.47;1.10;;;;;;;;;;5071621;28;20193;-71
2022/08/08 03:33:17;;;;;;;2.67;1.17;;;;;;;;;;5065676;28;21945;-71
2022/08/08 03:35:44;;;;;;;1.87;1.10;;;;;;;;;;5072188;28;20197;-71
2022/08/08 03:38:10;;;;;;;5.70;1.20;;;;;;;;;;5065208;28;20740;-71
2022/08/08 03:40:37;;;;;;;1.47;1.17;;;;;;;;;;5069963;28;20188;-71
2022/08/08 03:43:09;;;;;;;1.23;1.13;;;;;;;;;;5063994;28;20177;-71
2022/08/08 03:45:38;;;;;;;1.20;1.10;;;;;;;;;;5067333;28;20706;-72
2022/08/08 03:48:08;;;;;;;1.83;1.20;;;;;;;;;;5071236;28;20654;-71
2022/08/08 03:50:41;;;;;;;2.13;1.10;;;;;;;;;;5072927;28;20181;-71
2022/08/08 03:53:10;;;;;;;2.23;1.40;;;;;;;;;;5068100;28;20234;-71
2022/08/08 03:55:40;;;;;;;3.57;0.90;;;;;;;;;;5070271;28;20568;-72
2022/08/08 03:58:08;;;;;;;1.10;1.00;;;;;;;;;;5066113;28;20212;-71
2022/08/08 04:00:35;;;;;;;2.60;1.10;;;;;;;;;;5069826;28;20560;-71
2022/08/08 04:03:06;;;;;;;1.73;1.20;;;;;;;;;;5066162;28;20177;-71
2022/08/08 04:05:37;;;;;;;2.60;1.20;;;;;;;;;;5067771;28;20229;-72
2022/08/08 04:08:15;;;;;;;2.17;1.20;;;;;;;;;;5063068;28;20241;-71
2022/08/08 04:10:45;;;;;;;1.63;1.00;;;;;;;;;;5071164;28;20197;-71
2022/08/08 04:13:12;;;;;;;3.10;1.13;;;;;;;;;;5067835;28;20185;-71
2022/08/08 04:15:38;;;;;;;1.83;1.20;;;;;;;;;;5071533;28;20204;-71
2022/08/08 04:18:04;;;;;;;1.20;1.10;;;;;;;;;;5066333;28;20210;-71
2022/08/08 04:20:31;;;;;;;3.00;1.10;;;;;;;;;;5067224;28;20191;-72
2022/08/08 04:22:57;;;;;;;2.03;1.10;;;;;;;;;;5069741;28;20185;-72
2022/08/08 04:25:23;;;;;;;1.20;1.10;;;;;;;;;;5070173;28;20294;-72
2022/08/08 04:27:50;;;;;;;1.93;1.20;;;;;;;;;;5068224;28;20193;-71
2022/08/08 04:30:16;;;;;;;1.23;1.10;;;;;;;;;;5070635;28;20610;-70
2022/08/08 04:32:42;;;;;;;2.37;1.43;;;;;;;;;;5068301;28;20181;-71
2022/08/08 04:35:09;;;;;;;3.13;1.10;;;;;;;;;;5071058;28;20208;-71
2022/08/08 04:37:38;;;;;;;1.43;1.20;;;;;;;;;;5063595;28;20258;-71
2022/08/08 04:40:11;;;;;;;1.47;1.13;;;;;;;;;;5062203;28;20283;-70
2022/08/08 04:42:45;;;;;;;1.43;1.30;;;;;;;;;;5068825;28;20184;-71
2022/08/08 04:45:11;;;;;;;1.40;1.30;;;;;;;;;;5068185;28;20262;-71
2022/08/08 04:47:38;;;;;;;2.13;1.20;;;;;;;;;;5063714;28;20197;-71
2022/08/08 04:50:04;;;;;;;1.80;1.20;;;;;;;;;;5070777;28;20605;-72
2022/08/08 04:52:33;;;;;;;1.80;1.27;;;;;;;;;;5062791;28;20235;-71
2022/08/08 04:54:59;;;;;;;2.07;1.20;;;;;;;;;;5062608;28;20530;-70
2022/08/08 04:57:26;;;;;;;1.20;1.07;;;;;;;;;;5061860;28;20213;-71
2022/08/08 04:59:52;;;;;;;2.03;1.30;;;;;;;;;;5066636;28;20186;-71
2022/08/08 05:02:18;;;;;;;1.60;1.10;;;;;;;;;;5068275;28;20185;-71
2022/08/08 05:04:45;;;;;;;3.20;1.60;;;;;;;;;;5067054;28;20541;-72
2022/08/08 05:07:11;;;;;;;1.93;1.37;;;;;;;;;;5064221;28;20283;-71
2022/08/08 05:09:38;;;;;;;1.50;1.30;;;;;;;;;;5065976;28;20207;-71
2022/08/08 05:12:04;;;;;;;2.13;1.40;;;;;;;;;;5057036;28;20619;-71
2022/08/08 05:14:31;;;;;;;3.63;1.30;;;;;;;;;;5060123;28;20245;-71
2022/08/08 05:17:03;;;;;;;2.27;1.47;;;;;;;;;;5049122;28;20662;-72
2022/08/08 05:19:34;;;;;;;4.13;1.60;;;;;;;;;;5065257;28;20173;-72
2022/08/08 05:22:00;;;;;;;2.70;1.97;;;;;;;;;;5069180;28;20256;-71
2022/08/08 05:24:28;;;;;;;3.13;2.33;;;;;;;;;;5065157;28;20177;-71
2022/08/08 05:26:54;;;;;;;2.77;1.70;;;;;;;;;;5066155;28;20201;-71
2022/08/08 05:29:20;;;;;;;2.80;1.70;;;;;;;;;;5069942;28;20184;-71
2022/08/08 05:31:46;;;;;;;1.90;1.60;;;;;;;;;;5067809;28;20177;-72
2022/08/08 05:34:21;;;;;;;2.93;1.40;;;;;;;;;;5070914;28;20265;-71
2022/08/08 05:36:49;;;;;;;3.60;1.87;;;;;;;;;;5071155;28;20213;-72
2022/08/08 05:39:17;;;;;;;3.57;1.70;;;;;;;;;;5070015;28;20183;-71
2022/08/08 05:41:44;;;;;;;3.73;1.80;;;;;;;;;;5058338;28;20186;-71
2022/08/08 05:44:13;;;;;;;2.23;2.00;;;;;;;;;;5069318;28;20286;-71
2022/08/08 05:46:40;;;;;;;3.77;1.83;;;;;;;;;;5071330;28;20682;-71
2022/08/08 05:49:09;;;;;;;3.77;1.57;;;;;;;;;;5068242;28;20181;-71
2022/08/08 05:51:35;;;;;;;3.30;1.40;;;;;;;;;;5070729;28;20234;-71
2022/08/08 05:54:02;;;;;;;1.40;1.30;;;;;;;;;;5065843;28;20181;-71
2022/08/08 05:56:29;;;;;;;3.00;1.40;;;;;;;;;;5062818;28;20201;-71
2022/08/08 05:59:06;;;;;;;1.50;1.33;;;;;;;;;;5059261;28;20184;-71
2022/08/08 06:01:36;;;;;;;1.63;1.20;;;;;;;;;;5064728;28;20184;-71
2022/08/08 06:04:03;;;;;;;2.47;1.40;;;;;;;;;;5069591;28;20188;-71
2022/08/08 06:06:31;;;;;;;3.17;1.50;;;;;;;;;;5069731;28;20254;-72
2022/08/08 06:09:03;;;;;;;1.60;1.30;;;;;;;;;;5069772;28;20173;-71
2022/08/08 06:11:31;;;;;;;2.13;1.27;;;;;;;;;;5062975;28;20199;-71
2022/08/08 06:13:57;;;;;;;1.73;1.30;;;;;;;;;;5069381;28;20216;-71
2022/08/08 06:16:24;;;;;;;3.10;1.20;;;;;;;;;;5050836;28;20209;-70
2022/08/08 06:19:05;;;;;;;1.23;1.13;;;;;;;;;;5065002;28;20180;-72
2022/08/08 06:21:36;;;;;;;2.20;1.10;;;;;;;;;;5065678;28;20259;-71
2022/08/08 06:24:05;;;;;;;2.17;1.30;;;;;;;;;;5057670;28;20187;-70
2022/08/08 06:26:41;;;;;;;2.17;1.53;;;;;;;;;;5066332;28;20216;-71
2022/08/08 06:29:12;;;;;;;3.20;1.40;;;;;;;;;;5069486;28;20708;-72
2022/08/08 06:31:39;;;;;;;3.33;1.50;;;;;;;;;;5069400;28;20173;-71
2022/08/08 06:34:22;;;;;;;4.03;1.30;;;;;;;;;;5073583;28;20294;-71
2022/08/08 06:36:50;;;;;;;2.33;1.40;;;;;;;;;;5072455;28;20209;-71
2022/08/08 06:39:16;;;;;;;2.33;1.27;;;;;;;;;;5071704;28;20185;-72
2022/08/08 06:41:49;;;;;;;2.90;1.20;;;;;;;;;;5066641;28;20216;-71
2022/08/08 06:44:18;;;;;;;2.70;1.20;;;;;;;;;;5073494;28;20185;-71
2022/08/08 06:46:44;;;;;;;2.17;1.20;;;;;;;;;;5074510;28;20189;-72
2022/08/08 06:49:11;;;;;;;2.77;1.20;;;;;;;;;;5074707;28;20231;-71
2022/08/08 06:51:37;;;;;;;1.40;1.20;;;;;;;;;;5056637;28;20187;-71
2022/08/08 06:54:04;;;;;;;2.87;1.30;;;;;;;;;;5073182;28;20280;-71
2022/08/08 06:56:34;;;;;;;3.03;1.10;;;;;;;;;;5070714;28;20218;-71
2022/08/08 06:59:01;;;;;;;2.17;1.20;;;;;;;;;;5072346;28;20195;-71
2022/08/08 07:01:29;;;;;;;1.77;1.37;;;;;;;;;;5054216;28;20181;-71
2022/08/08 07:04:02;;;;;;;2.63;1.20;;;;;;;;;;5063149;28;20190;-72
2022/08/08 07:06:33;;;;;;;1.87;1.10;;;;;;;;;;5067132;28;20231;-71
2022/08/08 07:09:12;;;;;;;5.93;1.33;;;;;;;;;;5063699;28;20181;-71
2022/08/08 07:11:40;;;;;;;2.70;1.40;;;;;;;;;;5071959;28;20277;-72
2022/08/08 07:14:08;;;;;;;1.43;1.27;;;;;;;;;;5073883;28;20177;-72
2022/08/08 07:16:50;;;;;;;2.77;1.17;;;;;;;;;;5072659;28;20217;-71
2022/08/08 07:19:37;;;;;;;1.90;1.10;;;;;;;;;;5072614;28;20269;-71
2022/08/08 07:22:05;;;;;;;2.23;1.30;;;;;;;;;;5056612;28;20202;-71
2022/08/08 07:24:51;;;;;;;2.07;1.20;;;;;;;;;;5070533;28;20185;-72
2022/08/08 07:27:21;;;;;;;1.40;1.30;;;;;;;;;;5067957;28;20193;-71
2022/08/08 07:29:47;;;;;;;2.13;1.40;;;;;;;;;;5061084;28;20620;-72
2022/08/08 07:32:14;;;;;;;2.03;1.20;;;;;;;;;;5068394;28;20181;-71
2022/08/08 07:34:42;;;;;;;2.10;1.50;;;;;;;;;;5064520;28;20181;-71
2022/08/08 07:37:13;;;;;;;1.30;1.10;;;;;;;;;;5066535;28;20259;-71
2022/08/08 07:39:41;;;;;;;2.37;1.10;;;;;;;;;;5052535;28;20174;-71
2022/08/08 07:42:10;;;;;;;1.20;1.10;;;;;;;;;;5062764;28;20173;-71
2022/08/08 07:44:36;;;;;;;1.53;1.20;;;;;;;;;;5067347;28;20643;-71
2022/08/08 07:47:03;;;;;;;1.90;1.20;;;;;;;;;;5071877;28;20721;-71
2022/08/08 07:49:30;;;;;;;1.23;1.10;;;;;;;;;;5064126;28;20196;-70
2022/08/08 07:51:56;;;;;;;1.20;1.10;;;;;;;;;;5060262;28;20820;-71
2022/08/08 07:54:42;;;;;;;4.13;1.40;;;;;;;;;;5063641;28;20178;-70
2022/08/08 07:57:15;;;;;;;3.40;1.20;;;;;;;;;;5070102;28;20266;-71
2022/08/08 07:59:50;;;;;;;2.63;1.30;;;;;;;;;;5065735;28;20177;-71
2022/08/08 08:02:22;;;;;;;1.67;1.10;;;;;;;;;;5071824;28;20177;-71
2022/08/08 08:04:54;;;;;;;3.10;1.10;;;;;;;;;;5053268;28;20185;-71
2022/08/08 08:07:22;;;;;;;2.93;1.30;;;;;;;;;;5071047;28;20181;-71
2022/08/08 08:09:48;;;;;;;2.70;1.17;;;;;;;;;;5062027;28;20185;-71
2022/08/08 08:12:16;;;;;;;2.37;1.20;;;;;;;;;;5051109;28;20194;-71
2022/08/08 08:14:54;;;;;;;3.37;1.30;;;;;;;;;;5070966;28;20230;-71
2022/08/08 08:17:22;;;;;;;2.97;1.30;;;;;;;;;;5069512;28;20242;-72
2022/08/08 08:19:54;;;;;;;2.90;1.20;;;;;;;;;;5061140;28;20265;-71
2022/08/08 08:22:22;;;;;;;1.23;1.13;;;;;;;;;;5066088;28;20227;-72
2022/08/08 08:24:51;;;;;;;1.30;1.20;;;;;;;;;;5067737;28;20551;-71
2022/08/08 08:27:20;;;;;;;1.30;1.20;;;;;;;;;;5064807;28;20256;-72
2022/08/08 08:29:50;;;;;;;1.23;1.13;;;;;;;;;;5070827;28;20193;-71
2022/08/08 08:32:16;;;;;;;2.13;1.40;;;;;;;;;;5070301;28;20254;-71
2022/08/08 08:34:44;;;;;;;2.27;1.20;;;;;;;;;;5063063;28;20216;-72
2022/08/08 08:37:11;;;;;;;4.03;1.30;;;;;;;;;;5066182;28;20300;-71
2022/08/08 08:39:40;;;;;;;3.20;1.40;;;;;;;;;;5056984;28;20189;-71
2022/08/08 08:42:06;;;;;;;3.10;1.43;;;;;;;;;;5066835;28;20591;-71
2022/08/08 08:44:33;;;;;;;1.27;1.17;;;;;;;;;;5069304;28;20189;-72
2022/08/08 08:46:59;;;;;;;3.50;1.40;;;;;;;;;;5070448;28;20238;-71
2022/08/08 08:49:27;;;;;;;3.03;1.30;;;;;;;;;;5062371;28;20203;-71
2022/08/08 08:51:56;;;;;;;1.53;1.30;;;;;;;;;;5063974;28;20191;-72
2022/08/08 08:54:24;;;;;;;2.97;1.40;;;;;;;;;;5065680;28;20212;-72
2022/08/08 08:56:51;;;;;;;2.70;1.20;;;;;;;;;;5069451;28;20243;-72
2022/08/08 08:59:18;;;;;;;2.97;1.30;;;;;;;;;;5070073;28;20174;-72
2022/08/08 09:01:50;;;;;;;1.43;1.20;;;;;;;;;;5068593;28;20647;-71
2022/08/08 09:04:32;;;;;;;3.03;1.30;;;;;;;;;;5059519;28;20192;-74
2022/08/08 09:07:01;;;;;;;4.80;1.50;;;;;;;;;;5069884;28;20185;-74
2022/08/08 09:09:29;;;;;;;1.33;1.10;;;;;;;;;;5067524;28;20269;-73
2022/08/08 09:12:06;;;;;;;1.67;1.30;;;;;;;;;;5069839;28;20232;-73
2022/08/08 09:14:33;;;;;;;3.70;1.77;;;;;;;;;;5070116;28;20188;-73
2022/08/08 09:17:00;;;;;;;3.30;1.57;;;;;;;;;;5070062;28;20201;-72
2022/08/08 09:19:27;;;;;;;1.77;1.23;;;;;;;;;;5050171;28;20176;-73
2022/08/08 09:21:54;;;;;;;2.13;1.30;;;;;;;;;;5049798;28;20177;-73
2022/08/08 09:24:22;;;;;;;3.43;1.30;;;;;;;;;;5037280;28;20192;-73
2022/08/08 09:27:08;;;;;;;2.93;1.40;;;;;;;;;;5058618;28;20908;-73
2022/08/08 09:29:54;;;;;;;3.20;1.10;;;;;;;;;;5080483;28;20685;-74
2022/08/08 09:32:34;;;;;;;1.80;1.30;;;;;;;;;;5062064;28;20174;-78
2022/08/08 09:35:01;;;;;;;2.07;1.30;;;;;;;;;;5076649;28;20202;-73
2022/08/08 09:37:29;;;;;;;2.17;1.30;;;;;;;;;;5061202;28;20930;-72
2022/08/08 09:40:07;;;;;;;1.33;1.23;;;;;;;;;;5069511;28;20203;-75
2022/08/08 09:42:37;;;;;;;1.90;1.40;;;;;;;;;;5058631;28;20624;-74
2022/08/08 09:45:08;;;;;;;2.07;1.30;;;;;;;;;;5071752;28;20236;-74
2022/08/08 09:47:38;;;;;;;1.40;1.30;;;;;;;;;;5060738;28;20186;-73
2022/08/08 09:50:15;;;;;;;1.40;1.30;;;;;;;;;;5054289;28;20216;-73
2022/08/08 09:52:43;;;;;;;2.03;1.40;;;;;;;;;;5061273;28;21304;-73
2022/08/08 09:55:09;;;;;;;2.93;1.40;;;;;;;;;;5069923;28;20205;-73
2022/08/08 09:57:39;;;;;;;1.83;1.43;;;;;;;;;;5064977;28;20209;-73
2022/08/08 10:00:07;;;;;;;1.80;1.30;;;;;;;;;;5066368;28;20271;-72
2022/08/08 10:02:46;;;;;;;1.50;1.40;;;;;;;;;;5072087;28;20187;-72
2022/08/08 10:05:16;;;;;;;3.97;1.40;;;;;;;;;;5070791;28;20216;-73
2022/08/08 10:07:51;;;;;;;1.40;1.30;;;;;;;;;;5062704;28;20267;-73
2022/08/08 10:10:35;;;;;;;1.63;1.40;;;;;;;;;;5068429;28;20211;-73
2022/08/08 10:13:21;;;;;;;1.63;1.40;;;;;;;;;;5062973;28;20198;-73
2022/08/08 10:15:49;;;;;;;1.53;1.20;;;;;;;;;;5060736;28;20258;-73
2022/08/08 10:18:25;;;;;;;1.93;1.37;;;;;;;;;;5062619;28;20210;-74
2022/08/08 10:20:53;;;;;;;1.73;1.30;;;;;;;;;;5065640;28;20186;-75
2022/08/08 10:23:23;;;;;;;1.40;1.30;;;;;;;;;;5070497;28;20670;-74
2022/08/08 10:25:49;;;;;;;1.73;1.63;;;;;;;;;;5063882;28;20208;-73
2022/08/08 10:28:16;;;;;;;1.60;1.50;;;;;;;;;;5068005;28;20587;-73
2022/08/08 10:30:55;;;;;;;2.07;1.30;;;;;;;;;;5073477;28;20195;-73
2022/08/08 10:33:30;;;;;;;1.40;1.30;;;;;;;;;;5083364;28;20172;-73
2022/08/08 10:35:59;;;;;;;1.40;1.30;;;;;;;;;;5063783;28;20672;-73
2022/08/08 10:38:29;;;;;;;3.33;1.30;;;;;;;;;;5061797;28;20288;-75
2022/08/08 10:40:55;;;;;;;1.47;1.37;;;;;;;;;;5065670;28;20184;-74
2022/08/08 10:43:22;;;;;;;1.57;1.47;;;;;;;;;;5063386;28;20228;-74
2022/08/08 10:45:49;;;;;;;1.83;1.40;;;;;;;;;;5070453;28;20201;-74
2022/08/08 10:48:15;;;;;;;3.07;1.20;;;;;;;;;;5069786;28;20173;-74
2022/08/08 10:50:41;;;;;;;1.43;1.33;;;;;;;;;;5070026;28;20216;-74
2022/08/08 10:53:08;;;;;;;2.13;1.47;;;;;;;;;;5070196;28;20233;-74
2022/08/08 10:55:39;;;;;;;1.93;1.50;;;;;;;;;;5070222;28;20208;-74
2022/08/08 10:58:06;;;;;;;2.63;1.40;;;;;;;;;;5060423;28;20208;-74
2022/08/08 11:00:33;;;;;;;2.23;1.53;;;;;;;;;;5068039;28;20216;-74
2022/08/08 11:03:10;;;;;;;2.77;1.27;;;;;;;;;;5068203;28;20197;-74
2022/08/08 11:05:46;;;;;;;1.20;1.10;;;;;;;;;;5068472;28;20282;-74
2022/08/08 11:08:20;;;;;;;2.73;1.40;;;;;;;;;;5068100;28;20196;-74
2022/08/08 11:10:46;;;;;;;1.97;1.37;;;;;;;;;;5064516;28;20256;-74
2022/08/08 11:13:18;;;;;;;2.17;1.40;;;;;;;;;;5069317;28;20744;-74
2022/08/08 11:15:44;;;;;;;1.53;1.30;;;;;;;;;;5070366;28;20197;-74
2022/08/08 11:18:11;;;;;;;2.60;1.33;;;;;;;;;;5064785;28;20259;-74
2022/08/08 11:20:37;;;;;;;2.07;1.30;;;;;;;;;;5067849;28;20189;-74
2022/08/08 11:23:03;;;;;;;1.53;1.20;;;;;;;;;;5066336;28;20189;-74
2022/08/08 11:25:31;;;;;;;1.50;1.40;;;;;;;;;;5067569;28;20212;-74
2022/08/08 11:27:59;;;;;;;2.73;1.40;;;;;;;;;;5071866;28;20185;-74
2022/08/08 11:30:29;;;;;;;2.23;1.20;;;;;;;;;;5079266;28;20201;-75
2022/08/08 11:32:56;;;;;;;3.17;1.37;;;;;;;;;;5058960;28;20236;-74
2022/08/08 11:35:22;;;;;;;2.67;1.33;;;;;;;;;;5078544;28;20240;-75
2022/08/08 11:37:49;;;;;;;1.50;1.40;;;;;;;;;;5083488;28;20278;-74
2022/08/08 11:40:15;;;;;;;4.30;1.50;;;;;;;;;;5073357;28;20180;-74
2022/08/08 11:42:42;;;;;;;1.40;1.30;;;;;;;;;;5073333;28;20204;-75
2022/08/08 11:45:09;;;;;;;1.73;1.40;;;;;;;;;;5068842;28;20200;-75
2022/08/08 11:47:36;;;;;;;2.33;1.40;;;;;;;;;;5075772;28;20189;-75
2022/08/08 11:50:07;;;;;;;1.37;1.20;;;;;;;;;;5083028;28;20199;-75
2022/08/08 11:52:34;;;;;;;1.50;1.40;;;;;;;;;;5080622;28;20208;-75
2022/08/08 11:55:00;;;;;;;1.30;1.20;;;;;;;;;;5090031;28;20215;-75
2022/08/08 11:57:27;;;;;;;5.30;1.43;;;;;;;;;;5078188;28;20200;-76
2022/08/08 11:59:58;;;;;;;2.20;1.13;;;;;;;;;;5069018;28;20230;-75
2022/08/08 12:02:25;;;;;;;1.23;1.13;;;;;;;;;;5072792;28;20211;-75
2022/08/08 12:05:11;;;;;;;1.87;1.23;;;;;;;;;;5073343;28;20168;-74
2022/08/08 12:07:50;;;;;;;3.70;1.30;;;;;;;;;;5061348;28;20192;-75
2022/08/08 12:10:17;;;;;;;1.87;1.37;;;;;;;;;;5064962;28;20205;-74
2022/08/08 12:12:44;;;;;;;1.40;1.30;;;;;;;;;;5061719;28;20687;-75
2022/08/08 12:15:11;;;;;;;2.90;1.40;;;;;;;;;;5070319;28;20205;-74
2022/08/08 12:17:38;;;;;;;1.73;1.33;;;;;;;;;;5063347;28;20214;-79
2022/08/08 12:20:05;;;;;;;2.57;1.27;;;;;;;;;;5066094;28;20182;-80
2022/08/08 12:22:32;;;;;;;1.50;1.40;;;;;;;;;;5071338;28;20212;-78
2022/08/08 12:24:58;;;;;;;1.20;1.10;;;;;;;;;;5066946;28;20287;-80
2022/08/08 12:27:25;;;;;;;1.97;1.20;;;;;;;;;;5073391;28;20193;-79
2022/08/08 12:29:54;;;;;;;3.17;1.73;;;;;;;;;;5070534;28;20200;-78
2022/08/08 12:32:20;;;;;;;1.50;1.20;;;;;;;;;;5061888;28;20193;-77
2022/08/08 12:34:47;;;;;;;3.13;1.20;;;;;;;;;;5064825;28;20183;-78
2022/08/08 12:37:21;;;;;;;1.30;1.20;;;;;;;;;;5063779;28;20671;-78
2022/08/08 12:39:47;;;;;;;2.40;1.17;;;;;;;;;;5071998;28;20178;-77
2022/08/08 12:42:13;;;;;;;1.20;1.10;;;;;;;;;;5082609;28;20179;-78
2022/08/08 12:44:41;;;;;;;2.50;1.10;;;;;;;;;;5089806;28;20263;-77
2022/08/08 12:47:08;;;;;;;1.43;1.10;;;;;;;;;;5070764;28;20187;-77
2022/08/08 12:49:35;;;;;;;3.07;1.30;;;;;;;;;;5075437;28;20185;-77
2022/08/08 12:52:02;;;;;;;1.40;1.07;;;;;;;;;;5065827;28;20228;-78
2022/08/08 12:54:36;;;;;;;1.40;1.20;;;;;;;;;;5065630;28;20178;-78
2022/08/08 12:57:16;;;;;;;1.40;1.30;;;;;;;;;;5063124;28;20213;-78
2022/08/08 12:59:52;;;;;;;1.30;1.20;;;;;;;;;;5072317;28;20228;-78
2022/08/08 13:02:26;;;;;;;1.50;1.20;;;;;;;;;;5073247;28;20219;-78
2022/08/08 13:04:53;;;;;;;1.20;1.10;;;;;;;;;;5070419;28;20210;-78
2022/08/08 13:07:19;;;;;;;1.13;0.90;;;;;;;;;;5078479;28;20240;-78
2022/08/08 13:09:46;;;;;;;1.03;1.00;;;;;;;;;;5079286;28;20183;-78
2022/08/08 13:12:17;;;;;;;1.30;1.20;;;;;;;;;;5079701;28;20298;-78
2022/08/08 13:14:46;;;;;;;1.10;1.00;;;;;;;;;;5070959;28;20920;-78
2022/08/08 13:17:12;;;;;;;1.53;1.10;;;;;;;;;;5076012;28;20203;-80
2022/08/08 13:19:39;;;;;;;1.30;1.10;;;;;;;;;;5071476;28;20663;-79
2022/08/08 13:22:06;;;;;;;1.53;1.00;;;;;;;;;;5084714;28;20177;-79
2022/08/08 13:24:35;;;;;;;2.97;1.13;;;;;;;;;;5069333;28;20556;-79
2022/08/08 13:27:03;;;;;;;1.27;1.10;;;;;;;;;;5079747;28;20196;-79
2022/08/08 13:29:29;;;;;;;1.17;1.08;;;;;;;;;;5095752;28;20205;-79
2022/08/08 13:32:01;;;;;;;1.77;1.05;;;;;;;;;;5073140;28;20199;-79
2022/08/08 13:34:27;;;;;;;3.50;1.20;;;;;;;;;;5071885;28;20194;-79
2022/08/08 13:36:54;;;;;;;1.00;1.00;;;;;;;;;;5074673;28;20201;-79
2022/08/08 13:39:20;;;;;;;1.02;0.93;;;;;;;;;;5075411;28;20255;-79
2022/08/08 13:41:48;;;;;;;1.20;1.10;;;;;;;;;;5073985;28;20172;-79
2022/08/08 13:44:14;;;;;;;1.17;0.90;;;;;;;;;;5074952;28;20654;-79
2022/08/08 13:46:52;;;;;;;1.38;1.17;;;;;;;;;;5083380;28;20201;-79
2022/08/08 13:49:18;;;;;;;1.70;0.90;;;;;;;;;;5067603;28;20673;-79
2022/08/08 13:51:52;;;;;;;2.15;0.90;;;;;;;;;;5077419;28;20194;-79
2022/08/08 13:54:22;;;;;;;1.45;1.10;;;;;;;;;;5078129;28;20677;-79
2022/08/08 13:56:58;;;;;;;3.20;1.10;;;;;;;;;;5089216;28;20202;-77
2022/08/08 13:59:44;;;;;;;1.73;0.80;;;;;;;;;;5082636;28;20184;-77
2022/08/08 14:02:13;;;;;;;3.40;1.00;;;;;;;;;;5090814;28;20190;-77
2022/08/08 14:04:39;;;;;;;1.52;0.98;;;;;;;;;;5087800;28;20241;-77
2022/08/08 14:07:05;;;;;;;2.78;1.05;;;;;;;;;;5067279;28;20196;-77
2022/08/08 14:09:36;;;;;;;1.08;1.00;;;;;;;;;;5066416;28;20201;-77
2022/08/08 14:12:05;;;;;;;2.47;1.08;;;;;;;;;;5070447;28;20196;-77
2022/08/08 14:14:37;;;;;;;1.30;1.00;;;;;;;;;;5073116;28;20219;-77
2022/08/08 14:17:04;;;;;;;2.40;1.10;;;;;;;;;;5090835;28;20376;-77
2022/08/08 14:19:41;;;;;;;2.25;1.20;;;;;;;;;;5082718;28;20207;-77
2022/08/08 14:22:20;;;;;;;1.08;0.90;;;;;;;;;;5075975;28;20625;-77
2022/08/08 14:24:47;;;;;;;0.90;0.80;;;;;;;;;;5065081;28;20183;-77
2022/08/08 14:27:17;;;;;;;2.05;0.95;;;;;;;;;;5066826;28;20786;-77
2022/08/08 14:29:53;;;;;;;3.15;1.00;;;;;;;;;;5078101;28;20581;-77
2022/08/08 14:32:19;;;;;;;1.15;1.00;;;;;;;;;;5070261;28;20185;-77
2022/08/08 14:35:15;;;;;;;0.90;0.90;;;;;;;;;;5090795;28;20181;-77
2022/08/08 14:37:42;;;;;;;1.15;0.90;;;;;;;;;;5069947;28;20269;-76
2022/08/08 14:40:08;;;;;;;1.30;1.10;;;;;;;;;;5070531;28;20183;-76
2022/08/08 14:42:41;;;;;;;1.80;1.05;;;;;;;;;;5070338;28;20184;-76
2022/08/08 14:45:09;;;;;;;1.23;1.13;;;;;;;;;;5067003;28;20202;-77
2022/08/08 14:47:45;;;;;;;1.00;0.90;;;;;;;;;;5083092;28;20184;-76
2022/08/08 14:50:13;;;;;;;1.00;0.90;;;;;;;;;;5089764;28;20214;-77
2022/08/08 14:52:43;;;;;;;1.10;0.90;;;;;;;;;;5070460;28;20210;-77
2022/08/08 14:55:09;;;;;;;2.97;1.02;;;;;;;;;;5074495;28;20202;-78
2022/08/08 14:57:36;;;;;;;1.58;1.20;;;;;;;;;;5074139;28;20207;-77
2022/08/08 15:00:03;;;;;;;1.23;1.00;;;;;;;;;;5075893;28;20178;-77
2022/08/08 15:02:30;;;;;;;3.83;1.05;;;;;;;;;;5087766;28;20374;-77
2022/08/08 15:04:56;;;;;;;4.03;1.23;;;;;;;;;;5076639;28;20688;-77
2022/08/08 15:07:22;;;;;;;2.22;1.15;;;;;;;;;;5070457;28;20174;-77
2022/08/08 15:09:48;;;;;;;2.15;1.13;;;;;;;;;;5089037;28;20185;-78